createdAt,value
2018-10-01T00:01:00.938Z,16.66
2018-10-01T00:03:31.233Z,16.68
2018-10-01T00:06:00.933Z,16.64
2018-10-01T00:08:30.695Z,16.63
2018-10-01T00:11:00.487Z,16.61
2018-10-01T00:13:30.172Z,16.62
2018-10-01T00:15:59.644Z,16.67
2018-10-01T00:18:29.362Z,16.69
2018-10-01T00:21:03.796Z,16.70
2018-10-01T00:23:33.594Z,16.60
2018-10-01T00:26:03.271Z,16.61
2018-10-01T00:28:32.895Z,16.58
2018-10-01T00:31:02.830Z,16.56
2018-10-01T00:33:32.598Z,16.57
2018-10-01T00:36:02.374Z,16.45
2018-10-01T00:38:32.088Z,16.52
2018-10-01T00:41:01.921Z,16.39
2018-10-01T00:43:32.225Z,16.45
2018-10-01T00:46:02.105Z,16.49
2018-10-01T00:48:32.353Z,16.48
2018-10-01T00:51:02.026Z,16.53
2018-10-01T00:53:31.659Z,16.51
2018-10-01T00:56:02.350Z,16.48
2018-10-01T00:58:32.011Z,16.50
2018-10-01T01:01:01.809Z,16.48
2018-10-01T01:03:31.480Z,16.47
2018-10-01T01:06:01.456Z,16.48
2018-10-01T01:08:31.207Z,16.41
2018-10-01T01:11:00.966Z,16.40
2018-10-01T01:13:31.531Z,16.42
2018-10-01T01:16:01.296Z,16.43
2018-10-01T01:18:31.229Z,16.40
2018-10-01T01:21:00.990Z,16.36
2018-10-01T01:23:30.804Z,16.27
2018-10-01T01:26:00.421Z,16.24
2018-10-01T01:28:30.126Z,16.27
2018-10-01T01:30:59.668Z,16.22
2018-10-01T01:33:29.357Z,16.21
2018-10-01T01:35:59.115Z,16.24
2018-10-01T01:38:28.855Z,16.23
2018-10-01T01:40:58.452Z,16.24
2018-10-01T01:43:28.301Z,16.29
2018-10-01T01:45:58.085Z,16.21
2018-10-01T01:48:27.732Z,16.19
2018-10-01T01:50:57.512Z,16.05
2018-10-01T01:53:27.336Z,16.06
2018-10-01T01:55:56.796Z,15.95
2018-10-01T01:58:26.351Z,15.98
2018-10-01T02:00:56.008Z,15.96
2018-10-01T02:03:25.867Z,15.92
2018-10-01T02:05:55.585Z,15.87
2018-10-01T02:08:25.356Z,15.89
2018-10-01T02:10:55.080Z,15.92
2018-10-01T02:13:24.702Z,16.09
2018-10-01T02:15:54.385Z,16.02
2018-10-01T02:18:24.555Z,16.01
2018-10-01T02:20:54.148Z,16.05
2018-10-01T02:23:23.941Z,16.07
2018-10-01T02:25:53.664Z,16.00
2018-10-01T02:28:23.778Z,16.06
2018-10-01T02:30:53.487Z,15.98
2018-10-01T02:33:23.272Z,15.97
2018-10-01T02:35:52.891Z,15.96
2018-10-01T02:38:22.625Z,15.95
2018-10-01T02:40:52.532Z,15.97
2018-10-01T02:43:22.453Z,15.84
2018-10-01T02:45:52.223Z,15.86
2018-10-01T02:48:21.975Z,15.73
2018-10-01T02:50:51.608Z,15.74
2018-10-01T02:53:26.306Z,15.74
2018-10-01T02:55:55.851Z,15.83
2018-10-01T02:58:25.607Z,15.64
2018-10-01T03:00:55.087Z,15.57
2018-10-01T03:03:24.695Z,15.60
2018-10-01T03:05:55.109Z,15.67
2018-10-01T03:08:24.741Z,15.58
2018-10-01T03:10:54.622Z,15.57
2018-10-01T03:13:25.184Z,15.57
2018-10-01T03:15:55.748Z,15.73
2018-10-01T03:18:25.633Z,15.63
2018-10-01T03:20:55.302Z,15.53
2018-10-01T03:23:24.941Z,15.45
2018-10-01T03:25:54.600Z,15.41
2018-10-01T03:28:24.259Z,15.47
2018-10-01T03:30:53.864Z,15.50
2018-10-01T03:33:23.523Z,15.39
2018-10-01T03:35:53.234Z,15.45
2018-10-01T03:38:23.008Z,15.49
2018-10-01T03:40:52.475Z,15.08
2018-10-01T03:43:22.652Z,15.37
2018-10-01T03:45:53.496Z,15.28
2018-10-01T03:48:23.376Z,15.24
2018-10-01T03:50:53.100Z,15.20
2018-10-01T03:53:23.395Z,15.04
2018-10-01T03:55:52.926Z,15.00
2018-10-01T03:58:22.738Z,15.00
2018-10-01T04:00:52.386Z,14.92
2018-10-01T04:03:22.154Z,14.98
2018-10-01T04:05:51.888Z,14.86
2018-10-01T04:08:21.546Z,14.95
2018-10-01T04:10:52.279Z,14.87
2018-10-01T04:13:22.061Z,14.90
2018-10-01T04:15:51.799Z,14.93
2018-10-01T04:18:21.502Z,15.02
2018-10-01T04:20:51.228Z,14.91
2018-10-01T04:23:20.927Z,14.81
2018-10-01T04:25:50.535Z,14.80
2018-10-01T04:28:20.132Z,14.83
2018-10-01T04:30:50.017Z,14.89
2018-10-01T04:33:19.748Z,14.84
2018-10-01T04:35:49.329Z,14.84
2018-10-01T04:38:18.951Z,14.86
2018-10-01T04:40:48.779Z,14.92
2018-10-01T04:43:18.505Z,14.86
2018-10-01T04:45:48.189Z,14.86
2018-10-01T04:48:17.840Z,14.96
2018-10-01T04:50:47.601Z,14.73
2018-10-01T04:53:17.207Z,14.78
2018-10-01T04:55:46.811Z,14.69
2018-10-01T04:58:16.724Z,14.54
2018-10-01T05:00:46.477Z,14.51
2018-10-01T05:03:16.399Z,14.44
2018-10-01T05:05:45.946Z,14.46
2018-10-01T05:08:15.896Z,14.50
2018-10-01T05:10:45.906Z,14.50
2018-10-01T05:13:15.580Z,14.46
2018-10-01T05:15:45.285Z,14.52
2018-10-01T05:18:15.035Z,14.56
2018-10-01T05:20:44.607Z,14.58
2018-10-01T05:23:14.425Z,14.64
2018-10-01T05:25:44.162Z,14.77
2018-10-01T05:28:13.890Z,15.00
2018-10-01T05:30:43.484Z,15.10
2018-10-01T05:33:13.294Z,15.12
2018-10-01T05:35:43.159Z,15.53
2018-10-01T05:38:12.912Z,16.05
2018-10-01T05:40:42.859Z,16.26
2018-10-01T05:43:12.948Z,16.68
2018-10-01T05:45:42.620Z,16.71
2018-10-01T05:48:12.427Z,16.66
2018-10-01T05:50:42.185Z,16.81
2018-10-01T05:53:12.223Z,17.01
2018-10-01T05:55:41.923Z,17.04
2018-10-01T05:58:11.475Z,17.95
2018-10-01T06:00:41.245Z,18.16
2018-10-01T06:03:10.998Z,17.99
2018-10-01T06:05:40.864Z,18.00
2018-10-01T06:08:10.688Z,17.98
2018-10-01T06:10:40.956Z,17.96
2018-10-01T06:13:10.608Z,17.80
2018-10-01T06:15:41.250Z,17.76
2018-10-01T06:18:11.034Z,17.90
2018-10-01T06:20:40.996Z,18.00
2018-10-01T06:23:10.791Z,17.95
2018-10-01T06:25:40.735Z,17.63
2018-10-01T06:28:10.662Z,17.82
2018-10-01T06:30:40.521Z,17.87
2018-10-01T06:33:11.215Z,17.80
2018-10-01T06:35:40.933Z,17.79
2018-10-01T06:38:10.835Z,17.82
2018-10-01T06:40:40.555Z,19.16
2018-10-01T06:43:10.218Z,20.77
2018-10-01T06:45:40.084Z,22.09
2018-10-01T06:48:09.895Z,23.00
2018-10-01T06:50:39.471Z,23.41
2018-10-01T06:53:09.696Z,23.91
2018-10-01T06:55:39.195Z,24.35
2018-10-01T06:58:09.006Z,24.37
2018-10-01T07:00:40.704Z,24.21
2018-10-01T07:03:13.076Z,24.10
2018-10-01T07:05:43.229Z,22.84
2018-10-01T07:08:12.998Z,22.53
2018-10-01T07:10:42.612Z,23.05
2018-10-01T07:13:12.995Z,23.19
2018-10-01T07:15:42.908Z,23.71
2018-10-01T07:18:13.008Z,24.66
2018-10-01T07:20:42.957Z,25.51
2018-10-01T07:23:12.546Z,25.68
2018-10-01T07:25:42.393Z,24.99
2018-10-01T07:28:12.117Z,25.01
2018-10-01T07:30:41.931Z,25.02
2018-10-01T07:33:12.277Z,25.42
2018-10-01T07:35:41.983Z,25.44
2018-10-01T07:38:11.658Z,25.73
2018-10-01T07:40:41.397Z,25.55
2018-10-01T07:43:11.160Z,25.50
2018-10-01T07:45:42.694Z,25.87
2018-10-01T07:48:12.437Z,26.31
2018-10-01T07:50:42.064Z,26.08
2018-10-01T07:53:11.858Z,26.04
2018-10-01T07:55:41.541Z,26.19
2018-10-01T07:58:11.365Z,25.54
2018-10-01T08:00:41.177Z,24.55
2018-10-01T08:03:11.072Z,25.63
2018-10-01T08:05:40.916Z,25.87
2018-10-01T08:08:10.842Z,25.71
2018-10-01T08:10:40.665Z,25.97
2018-10-01T08:13:10.414Z,26.83
2018-10-01T08:15:40.314Z,26.62
2018-10-01T08:18:09.824Z,26.54
2018-10-01T08:20:40.522Z,25.49
2018-10-01T08:23:10.601Z,25.03
2018-10-01T08:25:40.298Z,25.43
2018-10-01T08:28:10.223Z,24.94
2018-10-01T08:30:39.959Z,24.43
2018-10-01T08:33:09.533Z,24.75
2018-10-01T08:35:39.285Z,25.51
2018-10-01T08:38:09.030Z,26.65
2018-10-01T08:40:38.824Z,27.61
2018-10-01T08:43:08.829Z,27.17
2018-10-01T08:45:38.689Z,27.47
2018-10-01T08:48:08.912Z,27.84
2018-10-01T08:50:44.592Z,28.20
2018-10-01T08:53:22.530Z,28.38
2018-10-01T08:55:52.261Z,27.96
2018-10-01T08:58:21.982Z,28.31
2018-10-01T09:00:51.729Z,28.39
2018-10-01T09:03:21.518Z,28.37
2018-10-01T09:05:51.365Z,28.87
2018-10-01T09:08:21.792Z,30.04
2018-10-01T09:10:51.490Z,29.21
2018-10-01T09:13:21.278Z,28.63
2018-10-01T09:15:51.127Z,28.47
2018-10-01T09:18:20.813Z,29.62
2018-10-01T09:20:50.589Z,28.88
2018-10-01T09:23:20.236Z,28.55
2018-10-01T09:25:53.909Z,29.24
2018-10-01T09:28:26.210Z,29.19
2018-10-01T09:30:57.073Z,29.84
2018-10-01T09:33:35.173Z,29.54
2018-10-01T09:36:05.299Z,28.91
2018-10-01T09:38:35.035Z,29.11
2018-10-01T09:41:04.785Z,28.92
2018-10-01T09:43:34.573Z,29.28
2018-10-01T09:46:04.311Z,30.46
2018-10-01T09:48:33.965Z,30.10
2018-10-01T09:51:03.912Z,30.23
2018-10-01T09:53:34.001Z,29.30
2018-10-01T09:56:03.842Z,29.94
2018-10-01T09:58:33.578Z,30.58
2018-10-01T10:01:08.172Z,29.80
2018-10-01T10:03:37.821Z,30.14
2018-10-01T10:06:09.684Z,29.10
2018-10-01T10:08:39.952Z,29.24
2018-10-01T10:11:09.708Z,29.07
2018-10-01T10:13:39.665Z,29.19
2018-10-01T10:16:09.602Z,29.77
2018-10-01T10:18:39.441Z,29.76
2018-10-01T10:21:09.234Z,30.18
2018-10-01T10:23:39.154Z,30.10
2018-10-01T10:26:08.758Z,30.42
2018-10-01T10:28:41.510Z,30.23
2018-10-01T10:31:11.229Z,30.59
2018-10-01T10:33:40.960Z,30.48
2018-10-01T10:36:10.957Z,29.91
2018-10-01T10:38:41.486Z,30.21
2018-10-01T10:41:11.204Z,30.67
2018-10-01T10:43:41.127Z,29.68
2018-10-01T10:46:11.147Z,29.21
2018-10-01T10:48:40.898Z,29.05
2018-10-01T10:51:10.513Z,29.38
2018-10-01T10:53:40.268Z,29.69
2018-10-01T10:56:10.029Z,30.32
2018-10-01T10:58:39.813Z,29.81
2018-10-01T11:01:09.697Z,30.57
2018-10-01T11:03:39.481Z,30.53
2018-10-01T11:06:09.273Z,30.77
2018-10-01T11:08:39.050Z,29.88
2018-10-01T11:11:09.098Z,30.49
2018-10-01T11:13:38.838Z,29.92
2018-10-01T11:16:08.674Z,28.79
2018-10-01T11:18:38.529Z,28.08
2018-10-01T11:21:08.831Z,29.60
2018-10-01T11:23:38.799Z,29.68
2018-10-01T11:26:08.673Z,29.87
2018-10-01T11:28:38.493Z,28.94
2018-10-01T11:31:08.297Z,28.55
2018-10-01T11:33:38.970Z,29.61
2018-10-01T11:36:08.617Z,29.52
2018-10-01T11:38:38.298Z,29.14
2018-10-01T11:41:08.046Z,30.24
2018-10-01T11:43:37.802Z,30.00
2018-10-01T11:46:07.333Z,29.94
2018-10-01T11:48:37.042Z,29.99
2018-10-01T11:51:06.958Z,29.71
2018-10-01T11:53:36.820Z,29.99
2018-10-01T11:56:06.595Z,29.44
2018-10-01T11:58:36.384Z,28.79
2018-10-01T12:01:06.123Z,28.99
2018-10-01T12:03:35.893Z,27.44
2018-10-01T12:06:05.530Z,26.55
2018-10-01T12:08:35.512Z,25.89
2018-10-01T12:11:05.200Z,25.44
2018-10-01T12:13:35.098Z,25.46
2018-10-01T12:16:04.973Z,25.45
2018-10-01T12:18:34.548Z,25.62
2018-10-01T12:21:04.461Z,25.51
2018-10-01T12:23:34.211Z,25.30
2018-10-01T12:26:04.091Z,25.35
2018-10-01T12:28:33.912Z,25.35
2018-10-01T12:31:03.526Z,25.41
2018-10-01T12:33:33.459Z,25.17
2018-10-01T12:36:03.305Z,25.29
2018-10-01T12:38:33.602Z,25.34
2018-10-01T12:41:05.845Z,25.35
2018-10-01T12:43:35.537Z,25.37
2018-10-01T12:46:06.184Z,25.34
2018-10-01T12:48:35.895Z,25.25
2018-10-01T12:51:06.051Z,25.36
2018-10-01T12:53:37.634Z,25.31
2018-10-01T12:56:07.519Z,25.42
2018-10-01T12:58:37.034Z,25.35
2018-10-01T13:01:07.793Z,25.22
2018-10-01T13:03:37.701Z,25.09
2018-10-01T13:06:07.525Z,25.28
2018-10-01T13:08:37.116Z,25.47
2018-10-01T13:11:37.737Z,25.67
2018-10-01T13:14:07.492Z,25.87
2018-10-01T13:16:37.614Z,25.65
2018-10-01T13:19:07.646Z,25.65
2018-10-01T13:21:37.422Z,25.73
2018-10-01T13:24:07.789Z,25.45
2018-10-01T13:26:37.495Z,25.39
2018-10-01T13:29:07.260Z,25.60
2018-10-01T13:31:36.788Z,25.62
2018-10-01T13:34:06.543Z,25.43
2018-10-01T13:36:36.230Z,25.35
2018-10-01T13:39:07.503Z,25.31
2018-10-01T13:41:37.055Z,25.17
2018-10-01T13:44:06.779Z,25.09
2018-10-01T13:46:36.558Z,25.11
2018-10-01T13:49:05.990Z,25.30
2018-10-01T13:51:35.857Z,25.36
2018-10-01T13:54:05.454Z,25.41
2018-10-01T13:56:35.006Z,25.50
2018-10-01T13:59:04.832Z,25.42
2018-10-01T14:01:34.752Z,25.23
2018-10-01T14:04:04.267Z,25.45
2018-10-01T14:06:33.949Z,25.48
2018-10-01T14:09:03.773Z,25.35
2018-10-01T14:11:33.423Z,25.49
2018-10-01T14:14:03.110Z,25.57
2018-10-01T14:16:32.790Z,25.33
2018-10-01T14:19:02.607Z,25.27
2018-10-01T14:21:32.299Z,25.40
2018-10-01T14:24:02.100Z,25.37
2018-10-01T14:26:31.713Z,25.21
2018-10-01T14:29:01.788Z,25.12
2018-10-01T14:31:31.330Z,25.12
2018-10-01T14:34:00.953Z,25.15
2018-10-01T14:36:30.596Z,25.20
2018-10-01T14:39:00.318Z,25.11
2018-10-01T14:41:29.976Z,25.07
2018-10-01T14:44:00.206Z,25.06
2018-10-01T14:46:29.798Z,25.08
2018-10-01T14:48:59.889Z,25.07
2018-10-01T14:51:30.125Z,25.08
2018-10-01T14:53:59.969Z,24.99
2018-10-01T14:56:29.674Z,24.89
2018-10-01T14:58:59.207Z,24.80
2018-10-01T15:01:28.978Z,24.76
2018-10-01T15:03:58.595Z,24.76
2018-10-01T15:06:28.916Z,24.69
2018-10-01T15:08:58.710Z,24.64
2018-10-01T15:11:28.430Z,24.60
2018-10-01T15:13:58.173Z,24.58
2018-10-01T15:16:28.351Z,24.55
2018-10-01T15:18:58.028Z,24.49
2018-10-01T15:21:27.721Z,24.44
2018-10-01T15:23:57.499Z,24.50
2018-10-01T15:26:27.262Z,24.50
2018-10-01T15:28:57.230Z,24.36
2018-10-01T15:31:27.206Z,24.33
2018-10-01T15:33:56.918Z,24.31
2018-10-01T15:36:26.845Z,24.10
2018-10-01T15:38:57.583Z,24.02
2018-10-01T15:41:27.403Z,23.95
2018-10-01T15:43:57.045Z,23.81
2018-10-01T15:46:26.705Z,23.67
2018-10-01T15:48:56.411Z,23.52
2018-10-01T15:51:26.057Z,23.42
2018-10-01T15:53:56.141Z,23.29
2018-10-01T15:56:25.692Z,23.08
2018-10-01T15:58:55.386Z,23.03
2018-10-01T16:01:25.197Z,22.93
2018-10-01T16:03:54.989Z,22.72
2018-10-01T16:06:24.547Z,22.69
2018-10-01T16:08:54.266Z,22.49
2018-10-01T16:11:23.938Z,22.50
2018-10-01T16:13:53.817Z,22.37
2018-10-01T16:16:23.488Z,22.39
2018-10-01T16:18:53.181Z,22.18
2018-10-01T16:21:23.453Z,22.08
2018-10-01T16:23:53.245Z,21.94
2018-10-01T16:26:23.346Z,21.83
2018-10-01T16:28:53.183Z,21.74
2018-10-01T16:31:23.032Z,21.64
2018-10-01T16:33:52.715Z,21.56
2018-10-01T16:36:22.350Z,21.46
2018-10-01T16:38:52.130Z,21.36
2018-10-01T16:41:21.835Z,21.21
2018-10-01T16:43:51.504Z,21.28
2018-10-01T16:46:21.179Z,21.27
2018-10-01T16:48:50.914Z,21.15
2018-10-01T16:51:21.700Z,21.14
2018-10-01T16:53:51.413Z,21.03
2018-10-01T16:56:21.223Z,21.02
2018-10-01T16:58:50.737Z,20.96
2018-10-01T17:01:20.221Z,20.85
2018-10-01T17:03:49.902Z,20.83
2018-10-01T17:06:19.840Z,20.73
2018-10-01T17:08:49.442Z,20.61
2018-10-01T17:11:19.093Z,20.55
2018-10-01T17:13:48.911Z,20.59
2018-10-01T17:16:18.527Z,20.50
2018-10-01T17:18:48.813Z,20.51
2018-10-01T17:21:18.365Z,20.49
2018-10-01T17:23:48.069Z,20.43
2018-10-01T17:26:17.608Z,20.36
2018-10-01T17:28:47.363Z,20.30
2018-10-01T17:31:17.124Z,20.22
2018-10-01T17:33:46.858Z,20.14
2018-10-01T17:36:16.415Z,20.16
2018-10-01T17:38:46.047Z,20.05
2018-10-01T17:41:15.826Z,19.99
2018-10-01T17:43:46.343Z,20.05
2018-10-01T17:46:15.991Z,19.92
2018-10-01T17:48:45.555Z,19.83
2018-10-01T17:51:15.395Z,19.66
2018-10-01T17:53:45.068Z,19.64
2018-10-01T17:56:14.839Z,19.54
2018-10-01T17:58:44.637Z,19.50
2018-10-01T18:01:14.453Z,19.49
2018-10-01T18:03:44.212Z,19.41
2018-10-01T18:06:13.909Z,19.38
2018-10-01T18:08:43.662Z,19.27
2018-10-01T18:11:13.389Z,19.17
2018-10-01T18:13:43.241Z,19.16
2018-10-01T18:16:12.973Z,19.11
2018-10-01T18:18:42.501Z,19.03
2018-10-01T18:21:13.163Z,19.02
2018-10-01T18:23:42.615Z,19.02
2018-10-01T18:26:12.749Z,19.03
2018-10-01T18:28:42.480Z,19.07
2018-10-01T18:31:12.186Z,19.03
2018-10-01T18:33:41.820Z,19.03
2018-10-01T18:36:11.621Z,19.01
2018-10-01T18:38:41.352Z,19.08
2018-10-01T18:41:11.857Z,19.07
2018-10-01T18:43:41.504Z,19.04
2018-10-01T18:46:11.237Z,19.00
2018-10-01T18:48:40.795Z,19.06
2018-10-01T18:51:10.469Z,18.52
2018-10-01T18:53:40.304Z,18.96
2018-10-01T18:56:10.924Z,18.93
2018-10-01T18:58:40.717Z,18.98
2018-10-01T19:01:10.313Z,18.91
2018-10-01T19:03:40.170Z,18.83
2018-10-01T19:06:09.798Z,18.77
2018-10-01T19:08:39.491Z,18.71
2018-10-01T19:11:09.712Z,18.58
2018-10-01T19:13:39.214Z,18.58
2018-10-01T19:16:08.989Z,18.46
2018-10-01T19:18:38.717Z,18.45
2018-10-01T19:21:08.665Z,18.36
2018-10-01T19:23:38.379Z,18.24
2018-10-01T19:26:08.251Z,18.16
2018-10-01T19:28:37.832Z,18.10
2018-10-01T19:31:08.205Z,18.13
2018-10-01T19:33:37.970Z,18.05
2018-10-01T19:36:07.805Z,18.00
2018-10-01T19:38:37.646Z,17.92
2018-10-01T19:41:07.392Z,17.87
2018-10-01T19:43:37.365Z,17.76
2018-10-01T19:46:06.994Z,17.73
2018-10-01T19:48:36.841Z,17.61
2018-10-01T19:51:06.581Z,17.54
2018-10-01T19:53:36.681Z,17.50
2018-10-01T19:56:06.338Z,17.37
2018-10-01T19:58:36.413Z,17.21
2018-10-01T20:01:06.127Z,17.14
2018-10-01T20:03:35.708Z,17.19
2018-10-01T20:06:05.842Z,17.04
2018-10-01T20:08:35.653Z,16.94
2018-10-01T20:11:05.346Z,16.93
2018-10-01T20:13:35.100Z,16.84
2018-10-01T20:16:04.699Z,16.78
2018-10-01T20:18:34.179Z,16.80
2018-10-01T20:21:04.023Z,16.74
2018-10-01T20:23:33.897Z,16.75
2018-10-01T20:26:03.560Z,16.81
2018-10-01T20:28:33.386Z,16.76
2018-10-01T20:31:03.027Z,16.72
2018-10-01T20:33:32.722Z,16.69
2018-10-01T20:36:02.574Z,16.67
2018-10-01T20:38:32.295Z,16.68
2018-10-01T20:41:02.044Z,16.75
2018-10-01T20:43:31.673Z,16.70
2018-10-01T20:46:01.455Z,16.76
2018-10-01T20:48:30.969Z,16.76
2018-10-01T20:51:00.623Z,16.75
2018-10-01T20:53:30.880Z,16.76
2018-10-01T20:56:00.509Z,16.85
2018-10-01T20:58:30.173Z,16.90
2018-10-01T21:00:59.835Z,16.94
2018-10-01T21:03:29.468Z,16.91
2018-10-01T21:05:59.053Z,16.93
2018-10-01T21:08:28.763Z,16.99
2018-10-01T21:10:58.479Z,16.97
2018-10-01T21:13:28.194Z,16.94
2018-10-01T21:15:57.868Z,16.82
2018-10-01T21:18:27.623Z,16.78
2018-10-01T21:20:57.743Z,16.71
2018-10-01T21:23:27.221Z,16.51
2018-10-01T21:25:56.865Z,16.22
2018-10-01T21:28:26.963Z,15.98
2018-10-01T21:30:56.615Z,15.86
2018-10-01T21:33:26.985Z,15.74
2018-10-01T21:35:57.437Z,15.97
2018-10-01T21:38:27.025Z,16.03
2018-10-01T21:40:56.594Z,15.96
2018-10-01T21:43:26.234Z,15.78
2018-10-01T21:45:55.951Z,15.70
2018-10-01T21:48:25.475Z,15.70
2018-10-01T21:50:55.390Z,15.62
2018-10-01T21:53:24.923Z,15.54
2018-10-01T21:55:54.486Z,15.52
2018-10-01T21:58:24.349Z,15.45
2018-10-01T22:00:59.040Z,15.43
2018-10-01T22:03:28.630Z,15.38
2018-10-01T22:05:58.290Z,15.36
2018-10-01T22:08:28.133Z,15.28
2018-10-01T22:10:58.898Z,15.19
2018-10-01T22:13:28.616Z,15.30
2018-10-01T22:15:59.208Z,15.34
2018-10-01T22:18:29.841Z,15.25
2018-10-01T22:20:59.303Z,15.16
2018-10-01T22:23:29.137Z,15.13
2018-10-01T22:25:58.902Z,15.07
2018-10-01T22:28:28.625Z,14.99
2018-10-01T22:30:58.432Z,14.91
2018-10-01T22:33:28.686Z,14.83
2018-10-01T22:35:58.326Z,14.92
2018-10-01T22:38:28.030Z,14.75
2018-10-01T22:40:57.548Z,14.75
2018-10-01T22:43:27.307Z,14.57
2018-10-01T22:45:57.090Z,14.48
2018-10-01T22:48:26.713Z,14.49
2018-10-01T22:50:56.692Z,14.48
2018-10-01T22:53:26.364Z,14.46
2018-10-01T22:55:56.086Z,14.35
2018-10-01T22:58:25.579Z,14.33
2018-10-01T23:00:55.109Z,14.35
2018-10-01T23:03:24.622Z,14.30
2018-10-01T23:05:54.224Z,14.28
2018-10-01T23:08:23.973Z,14.21
2018-10-01T23:10:53.688Z,14.13
2018-10-01T23:13:23.207Z,14.03
2018-10-01T23:15:52.869Z,14.01
2018-10-01T23:18:22.435Z,14.05
2018-10-01T23:20:52.062Z,14.05
2018-10-01T23:23:21.693Z,14.19
2018-10-01T23:25:51.365Z,14.08
2018-10-01T23:28:21.048Z,14.03
2018-10-01T23:30:50.713Z,13.99
2018-10-01T23:33:21.000Z,13.95
2018-10-01T23:35:50.738Z,13.83
2018-10-01T23:38:20.448Z,13.83
2018-10-01T23:40:50.241Z,13.77
2018-10-01T23:43:19.973Z,13.79
2018-10-01T23:45:49.766Z,13.69
2018-10-01T23:48:20.216Z,13.65
2018-10-01T23:50:50.018Z,13.72
2018-10-01T23:53:19.557Z,13.76
2018-10-01T23:55:49.337Z,13.73
2018-10-01T23:58:18.976Z,13.66
